Sarajevo, Bosnia and Herzegovina
Current Conditions -  °F | °C
As of 3:30 PM on Sunday 23 Nov 2014 (Local Time) from LQSA Reporting Station
Clear Clear  
Wind Chill: 50°   Ceiling: Unl
Heat Index: 50°   Visibility: 5mi
Dew Point: 32°   Wind: 1mph
Humidity: 50%   Direction: NA
Pressure: 30.33"   Gusts: NA
Location:  43.85°N, 18.38°E
Report Text: LQSA 231330Z VRB01KT 8000 NSC 10/M00 Q1027 NOSIG
Loading
Personal Weather Stations






























Interactive Weather Map New forecast layout! Learn more

10-Day Weather Forecast

Advertisements
Track Severe Weather on mobile